Buta Zega Airport


Codes: FZKJ/BZU
Name: Buta Zega Airport
City:
Country: Congo [DRC]
Elevation: 1378 ft.

Photos at Buta Zega Airport


   Photos courtesy of SpottingLog. You can add your own sightings and photos by signing up for a free trial today.



No photos found.

Weather at Buta Zega Airport


Time (UTC)DescriptionTempratureWindCloud coverageVisibilityPressureHumidity
23-May-2024 21:00Light Rain22°C2 mph, E96%10000m1011hPa95%
24-May-2024 00:00Overcast Clouds22°C2 mph, N95%10000m1011hPa95%
24-May-2024 03:00Overcast Clouds22°C0 mph, NE100%10000m1012hPa96%
24-May-2024 06:00Overcast Clouds23°C2 mph, E100%10000m1014hPa95%
24-May-2024 09:00Overcast Clouds25°C2 mph, SE100%10000m1014hPa84%
24-May-2024 12:00Light Rain28°C4 mph, SE99%10000m1011hPa65%
24-May-2024 15:00Overcast Clouds27°C2 mph, S96%10000m1010hPa70%
24-May-2024 18:00Light Rain24°C2 mph, SE98%10000m1011hPa84%
24-May-2024 21:00Overcast Clouds23°C2 mph, SE100%10000m1012hPa89%
25-May-2024 00:00Overcast Clouds22°C2 mph, S100%10000m1012hPa90%
25-May-2024 03:00Overcast Clouds22°C0 mph, E96%10000m1012hPa92%
25-May-2024 06:00Overcast Clouds24°C0 mph, NE96%10000m1014hPa84%
25-May-2024 09:00Overcast Clouds32°C2 mph, NW90%10000m1013hPa48%
25-May-2024 12:00Broken Clouds32°C2 mph, SW73%10000m1010hPa47%
25-May-2024 15:00Light Rain28°C2 mph, SE91%10000m1009hPa67%
25-May-2024 18:00Light Rain22°C0 mph, NW93%5386m1012hPa98%
25-May-2024 21:00Light Rain22°C2 mph, NE100%10000m1014hPa99%
26-May-2024 00:00Overcast Clouds21°C2 mph, NE94%10000m1013hPa99%
26-May-2024 03:00Light Rain21°C2 mph, N100%10000m1013hPa99%
26-May-2024 06:00Overcast Clouds22°C0 mph, NE100%10000m1015hPa99%
26-May-2024 09:00Overcast Clouds24°C0 mph, N100%10000m1016hPa87%
26-May-2024 12:00Overcast Clouds31°C4 mph, NW98%10000m1012hPa48%
26-May-2024 15:00Broken Clouds31°C2 mph, NW68%10000m1010hPa48%
26-May-2024 18:00Broken Clouds24°C0 mph, N67%10000m1012hPa74%
26-May-2024 21:00Scattered Clouds22°C2 mph, NE39%10000m1013hPa81%
27-May-2024 00:00Broken Clouds21°C2 mph, NW59%10000m1013hPa86%
27-May-2024 03:00Broken Clouds20°C2 mph, NE76%10000m1013hPa89%
27-May-2024 06:00Overcast Clouds24°C2 mph, SE88%10000m1014hPa71%
27-May-2024 09:00Overcast Clouds33°C2 mph, SE85%10000m1013hPa41%
27-May-2024 12:00Overcast Clouds36°C4 mph, S92%10000m1009hPa34%
27-May-2024 15:00Overcast Clouds34°C4 mph, S88%10000m1008hPa39%
27-May-2024 18:00Broken Clouds25°C2 mph, S83%10000m1010hPa69%
27-May-2024 21:00Broken Clouds23°C2 mph, E76%10000m1012hPa83%
28-May-2024 00:00Light Rain21°C2 mph, N63%10000m1011hPa94%
28-May-2024 03:00Light Rain21°C2 mph, E60%10000m1013hPa99%
28-May-2024 06:00Light Rain23°C0 mph, S79%10000m1015hPa95%
28-May-2024 09:00Overcast Clouds32°C4 mph, SE97%10000m1013hPa52%
28-May-2024 12:00Overcast Clouds36°C4 mph, S98%10000m1009hPa35%
28-May-2024 15:00Light Rain31°C4 mph, S97%10000m1008hPa56%
28-May-2024 18:00Light Rain24°C2 mph, SE97%10000m1009hPa87%